Time;durP1;ratioP1;P1;durP2;ratioP2;P2;SDS_P1;SDS_P2;PMS_P1;PMS_P2;Temp;Humidity;BMP_temperature;BMP_pressure;BME280_temperature;BME280_humidity;BME280_pressure;Samples;Min_cycle;Max_cycle;Signal;HPM_P1;HPM_P2
2023/10/03 00:02:44;;;;;;;25.73;10.77;;;25.40;84.80;;;;;;10534423;28;20048;-37
2023/10/03 00:07:47;;;;;;;;;;;25.10;85.90;;;;;;10524713;28;20056;-43
2023/10/03 00:12:51;;;;;;;24.38;9.70;;;25.30;85.50;;;;;;10525100;28;19928;-38
2023/10/03 00:17:55;;;;;;;23.35;9.45;;;25.20;85.50;;;;;;10533857;28;20052;-43
2023/10/03 00:22:59;;;;;;;21.20;9.68;;;25.00;86.40;;;;;;10533856;28;20047;-44
2023/10/03 00:28:01;;;;;;;18.58;8.77;;;25.20;85.50;;;;;;10534466;28;20123;-36
2023/10/03 00:33:04;;;;;;;21.70;9.60;;;25.20;85.90;;;;;;10537358;28;20045;-41
2023/10/03 00:38:13;;;;;;;20.55;9.95;;;25.20;85.50;;;;;;10527338;28;20155;-36
2023/10/03 00:43:15;;;;;;;22.70;9.27;;;25.20;86.00;;;;;;10528884;28;20123;-36
2023/10/03 00:48:18;;;;;;;34.35;13.73;;;25.10;86.70;;;;;;10528768;28;20440;-31
2023/10/03 00:53:22;;;;;;;23.98;9.50;;;24.70;84.00;;;;;;10529381;28;20131;-36
2023/10/03 00:58:28;;;;;;;26.33;10.90;;;25.00;86.70;;;;;;10526671;28;20048;-43
2023/10/03 01:03:32;;;;;;;33.60;11.90;;;25.00;87.40;;;;;;10536708;28;20113;-42
2023/10/03 01:08:37;;;;;;;23.58;9.98;;;24.80;86.40;;;;;;10523939;28;20044;-38
2023/10/03 01:13:39;;;;;;;25.67;11.35;;;24.90;87.00;;;;;;10525824;28;20133;-39
2023/10/03 01:18:42;;;;;;;27.40;10.95;;;24.70;87.80;;;;;;10525411;28;20052;-46
2023/10/03 01:23:45;;;;;;;39.42;13.43;;;24.50;90.30;;;;;;10526965;28;20153;-43
2023/10/03 01:28:48;;;;;;;30.63;11.48;;;23.60;92.20;;;;;;10529455;28;20072;-44
2023/10/03 01:33:50;;;;;;;33.28;13.63;;;24.00;91.60;;;;;;10530097;28;20112;-41
2023/10/03 01:38:53;;;;;;;31.63;12.32;;;23.40;93.10;;;;;;10520189;28;20048;-45
2023/10/03 01:43:55;;;;;;;34.85;12.07;;;23.40;92.60;;;;;;10517304;28;20158;-40
2023/10/03 01:48:57;;;;;;;33.50;11.60;;;22.90;95.00;;;;;;10531022;28;20044;-33
2023/10/03 01:54:00;;;;;;;28.27;10.05;;;23.10;94.20;;;;;;10544015;28;20063;-32
2023/10/03 01:59:02;;;;;;;28.52;10.95;;;23.10;94.90;;;;;;10526862;28;20044;-32
2023/10/03 02:04:06;;;;;;;30.20;10.35;;;22.90;95.90;;;;;;10537155;28;20067;-33
2023/10/03 02:09:10;;;;;;;26.17;9.02;;;22.70;97.20;;;;;;10534495;28;20515;-38
2023/10/03 02:14:12;;;;;;;27.05;8.27;;;22.30;99.10;;;;;;10522571;28;20044;-31
2023/10/03 02:19:13;;;;;;;20.83;7.90;;;22.50;98.90;;;;;;10541390;28;20048;-39
2023/10/03 02:24:17;;;;;;;21.40;6.70;;;22.40;98.90;;;;;;10525755;28;20044;-40
2023/10/03 02:29:19;;;;;;;23.35;6.38;;;22.30;99.90;;;;;;10523828;28;20055;-37
2023/10/03 02:34:21;;;;;;;22.50;6.22;;;21.60;99.90;;;;;;10527145;28;20056;-35
2023/10/03 02:39:25;;;;;;;24.40;5.70;;;21.70;99.90;;;;;;10528213;28;20506;-41
2023/10/03 02:44:27;;;;;;;20.90;6.15;;;21.70;99.90;;;;;;10530163;28;20055;-42
2023/10/03 02:49:29;;;;;;;21.33;6.25;;;21.70;99.90;;;;;;10529982;28;20071;-35
2023/10/03 02:54:32;;;;;;;23.58;5.60;;;21.60;99.90;;;;;;10535975;28;20048;-36
2023/10/03 03:15:31;;;;;;;19.02;4.57;;;20.90;99.90;;;;;;10550578;27;20590;-35
2023/10/03 03:20:37;;;;;;;27.25;6.03;;;21.60;99.90;;;;;;10513433;28;20052;-37
2023/10/03 03:25:42;;;;;;;25.35;5.35;;;21.30;99.90;;;;;;10524059;28;20040;-36
2023/10/03 03:30:46;;;;;;;24.02;4.25;;;21.10;99.90;;;;;;10512884;28;20045;-37
2023/10/03 03:35:48;;;;;;;21.27;6.57;;;21.30;99.90;;;;;;10528376;28;20445;-33
2023/10/03 03:40:56;;;;;;;24.67;4.75;;;20.70;99.90;;;;;;10509818;28;20473;-34
2023/10/03 03:45:59;;;;;;;28.02;5.97;;;20.90;99.90;;;;;;10510433;28;20043;-43
2023/10/03 03:51:01;;;;;;;21.27;6.55;;;20.50;99.90;;;;;;10510089;28;20119;-39
2023/10/03 03:56:04;;;;;;;20.95;5.07;;;20.70;99.90;;;;;;10517356;28;20048;-43
2023/10/03 04:01:13;;;;;;;15.60;5.43;;;21.20;99.90;;;;;;10512969;28;20734;-37
2023/10/03 04:06:15;;;;;;;17.58;4.65;;;20.40;99.90;;;;;;10525349;28;20052;-39
2023/10/03 04:11:17;;;;;;;17.98;5.63;;;21.10;99.90;;;;;;10518112;28;20110;-35
2023/10/03 04:16:21;;;;;;;21.65;5.47;;;20.60;99.90;;;;;;10512128;28;20040;-40
2023/10/03 04:21:27;;;;;;;16.90;5.25;;;20.80;99.90;;;;;;10517764;28;20144;-43
2023/10/03 04:26:30;;;;;;;16.17;4.47;;;20.40;99.90;;;;;;10497176;28;20079;-45
2023/10/03 04:31:35;;;;;;;10.77;3.60;;;21.10;99.90;;;;;;10477542;28;20047;-38
2023/10/03 04:36:37;;;;;;;12.18;3.85;;;20.90;99.90;;;;;;10489011;28;20048;-34
2023/10/03 04:41:43;;;;;;;15.75;4.35;;;21.00;99.90;;;;;;10487152;28;20053;-29
2023/10/03 04:46:46;;;;;;;12.68;3.33;;;20.40;99.90;;;;;;10481692;28;20068;-37
2023/10/03 04:51:48;;;;;;;15.75;3.78;;;20.90;99.90;;;;;;10475177;28;20052;-38
2023/10/03 04:56:50;;;;;;;12.68;3.20;;;20.60;99.90;;;;;;10484347;28;20094;-32
2023/10/03 05:01:54;;;;;;;10.38;3.10;;;20.60;99.90;;;;;;10482942;28;20048;-32
2023/10/03 05:06:56;;;;;;;15.40;3.22;;;20.80;99.90;;;;;;10489295;28;20063;-30
2023/10/03 05:11:57;;;;;;;11.73;3.22;;;20.60;99.90;;;;;;10478656;28;20143;-37
2023/10/03 05:17:01;;;;;;;13.02;3.50;;;21.10;99.90;;;;;;10480179;28;20110;-47
2023/10/03 05:22:04;;;;;;;12.27;3.17;;;20.30;99.90;;;;;;10479944;28;20413;-35
2023/10/03 05:27:07;;;;;;;14.55;3.58;;;20.00;99.90;;;;;;10476695;28;20074;-37
2023/10/03 05:32:10;;;;;;;11.13;2.70;;;19.30;99.90;;;;;;10485162;28;20072;-44
2023/10/03 05:37:12;;;;;;;9.18;2.15;;;19.40;99.90;;;;;;10475414;28;20127;-41
2023/10/03 05:42:17;;;;;;;14.73;2.60;;;19.80;99.90;;;;;;10475919;28;20060;-35
2023/10/03 05:47:21;;;;;;;7.80;2.15;;;19.70;99.90;;;;;;10476885;28;20198;-43
2023/10/03 05:52:22;;;;;;;6.88;1.80;;;20.20;99.90;;;;;;10480201;28;20092;-45
2023/10/03 05:57:24;;;;;;;4.13;1.92;;;19.90;99.90;;;;;;10476376;28;20425;-38
2023/10/03 06:02:27;;;;;;;6.22;2.10;;;20.10;99.90;;;;;;10479971;28;20048;-39
2023/10/03 06:07:30;;;;;;;15.40;3.08;;;20.50;99.90;;;;;;10469402;28;20087;-34
2023/10/03 06:12:32;;;;;;;9.05;2.00;;;19.80;99.90;;;;;;10480857;28;20048;-40
2023/10/03 06:17:36;;;;;;;9.48;2.03;;;20.40;99.90;;;;;;10477936;28;20079;-40
2023/10/03 06:22:39;;;;;;;5.40;1.50;;;19.50;99.90;;;;;;10482653;28;20106;-40
2023/10/03 06:27:41;;;;;;;10.10;1.90;;;20.70;99.90;;;;;;10480299;28;20106;-31
2023/10/03 06:32:45;;;;;;;7.95;2.00;;;19.70;99.90;;;;;;10483552;28;20056;-34
2023/10/03 06:37:48;;;;;;;7.07;2.03;;;20.30;99.90;;;;;;10463912;28;20052;-30
2023/10/03 06:42:49;;;;;;;7.82;1.38;;;20.00;99.90;;;;;;10477215;28;20048;-39
2023/10/03 06:47:54;;;;;;;7.40;1.13;;;20.80;99.90;;;;;;10482451;28;20139;-37
2023/10/03 06:52:56;;;;;;;3.97;0.93;;;19.80;99.90;;;;;;10481458;28;20087;-30
2023/10/03 06:58:00;;;;;;;8.00;1.27;;;19.10;99.90;;;;;;10482303;28;20095;-33
2023/10/03 07:03:03;;;;;;;6.72;1.10;;;19.70;99.90;;;;;;10476623;28;20072;-40
2023/10/03 07:08:07;;;;;;;7.68;1.05;;;18.40;99.90;;;;;;10473367;28;20045;-37
2023/10/03 07:13:10;;;;;;;7.18;1.98;;;18.20;99.90;;;;;;10470027;28;20048;-34
2023/10/03 07:18:14;;;;;;;3.83;1.75;;;20.00;99.90;;;;;;10474270;28;20048;-40
2023/10/03 07:23:15;;;;;;;8.73;1.00;;;19.80;99.90;;;;;;10465608;28;20148;-32
2023/10/03 07:28:17;;;;;;;5.70;1.10;;;18.70;99.90;;;;;;10470733;28;20087;-37
2023/10/03 07:33:22;;;;;;;2.90;0.90;;;19.10;99.90;;;;;;10470856;28;20072;-35
2023/10/03 07:38:24;;;;;;;6.07;1.55;;;19.40;99.90;;;;;;10477682;28;20136;-41
2023/10/03 07:43:25;;;;;;;4.20;0.93;;;18.70;99.90;;;;;;10472333;28;20475;-31
2023/10/03 07:48:29;;;;;;;3.30;0.97;;;18.40;99.90;;;;;;10488995;28;20536;-31
2023/10/03 07:53:31;;;;;;;5.75;1.00;;;18.70;99.90;;;;;;10475077;28;20440;-36
2023/10/03 07:58:35;;;;;;;5.07;0.80;;;18.20;99.90;;;;;;10482622;28;20037;-46
2023/10/03 08:03:38;;;;;;;1.58;0.82;;;17.70;99.90;;;;;;10485175;28;20053;-41
2023/10/03 08:08:39;;;;;;;7.63;0.85;;;18.30;99.90;;;;;;10488208;28;20041;-37
2023/10/03 08:13:41;;;;;;;8.05;0.90;;;19.30;99.90;;;;;;10479117;28;20064;-28
2023/10/03 08:18:46;;;;;;;3.47;0.95;;;18.20;99.90;;;;;;10481407;28;20523;-34
2023/10/03 08:23:51;;;;;;;4.10;0.60;;;19.10;99.90;;;;;;10492605;28;20131;-37
2023/10/03 08:29:03;;;;;;;6.85;0.93;;;18.40;99.90;;;;;;10468581;28;20058;-36
2023/10/03 08:34:10;;;;;;;2.42;0.70;;;19.00;99.90;;;;;;10483337;28;20049;-33
2023/10/03 08:39:13;;;;;;;1.40;0.60;;;19.10;99.90;;;;;;10474017;28;20049;-31
2023/10/03 08:44:15;;;;;;;5.57;0.98;;;20.40;99.90;;;;;;10483270;28;20044;-38
2023/10/03 08:49:21;;;;;;;4.10;0.77;;;18.80;99.90;;;;;;10477157;28;20052;-42
2023/10/03 08:54:27;;;;;;;3.35;0.55;;;17.40;99.90;;;;;;10473264;28;20041;-44
2023/10/03 08:59:30;;;;;;;8.93;1.17;;;17.50;99.90;;;;;;10471072;28;20049;-39
2023/10/03 09:04:38;;;;;;;5.68;1.35;;;18.10;99.90;;;;;;10469214;28;20048;-32
2023/10/03 09:09:41;;;;;;;5.38;1.10;;;18.20;99.90;;;;;;10472928;28;20055;-31
2023/10/03 09:14:43;;;;;;;6.57;0.75;;;19.40;99.90;;;;;;10473174;28;20099;-32
2023/10/03 09:19:46;;;;;;;5.93;1.73;;;20.00;99.90;;;;;;10468326;28;20083;-30
2023/10/03 09:24:48;;;;;;;4.75;1.27;;;18.90;99.90;;;;;;10489350;28;20101;-37
2023/10/03 09:29:50;;;;;;;3.28;1.58;;;19.80;99.90;;;;;;10486415;28;20048;-39
2023/10/03 09:34:57;;;;;;;6.45;2.17;;;18.40;99.90;;;;;;10478979;28;20048;-34
2023/10/03 09:40:00;;;;;;;6.72;1.60;;;18.00;99.90;;;;;;10479090;28;20052;-37
2023/10/03 09:45:06;;;;;;;;;;;19.50;99.90;;;;;;10483950;28;20064;-33
2023/10/03 09:50:10;;;;;;;9.23;1.85;;;19.40;99.90;;;;;;10476317;28;19924;-31
2023/10/03 09:55:21;;;;;;;7.53;1.75;;;19.90;99.90;;;;;;10469741;28;20060;-29
2023/10/03 10:00:39;;;;;;;4.90;1.40;;;19.40;99.90;;;;;;10483782;28;20464;-40
2023/10/03 10:05:59;;;;;;;14.15;2.28;;;18.70;99.90;;;;;;10477265;28;20085;-31
2023/10/03 10:11:07;;;;;;;8.80;1.85;;;18.10;99.90;;;;;;10478748;28;20052;-36
2023/10/03 10:16:11;;;;;;;13.07;2.38;;;18.70;99.90;;;;;;10463771;28;20079;-39
2023/10/03 10:21:31;;;;;;;11.10;1.65;;;18.50;99.90;;;;;;10480835;28;20047;-30
2023/10/03 10:26:34;;;;;;;10.45;1.88;;;18.40;99.90;;;;;;10483435;28;20083;-39
2023/10/03 10:31:37;;;;;;;10.63;2.38;;;18.90;99.90;;;;;;10476209;28;20347;-42
2023/10/03 10:36:55;;;;;;;9.10;1.75;;;18.40;99.90;;;;;;10475141;28;20726;-36
2023/10/03 10:42:10;;;;;;;7.50;1.77;;;18.90;99.90;;;;;;10471277;28;20048;-33
2023/10/03 10:47:14;;;;;;;5.45;2.08;;;18.50;99.90;;;;;;10467417;28;20045;-31
2023/10/03 10:52:17;;;;;;;14.35;2.45;;;18.40;99.90;;;;;;10486792;28;20075;-35
2023/10/03 10:57:21;;;;;;;7.38;2.05;;;17.50;99.90;;;;;;10478727;28;20131;-39
2023/10/03 11:02:26;;;;;;;5.63;1.60;;;17.50;99.90;;;;;;10487554;28;20478;-42
2023/10/03 11:07:31;;;;;;;10.30;2.30;;;18.00;99.90;;;;;;10486120;28;20480;-36
2023/10/03 11:12:35;;;;;;;9.23;2.13;;;17.50;99.90;;;;;;10481042;28;20144;-34
2023/10/03 11:17:38;;;;;;;7.25;2.00;;;17.90;99.90;;;;;;10468709;28;20119;-37
2023/10/03 11:22:41;;;;;;;11.70;2.90;;;17.20;99.90;;;;;;10475857;28;20040;-41
2023/10/03 11:27:43;;;;;;;9.38;1.70;;;17.80;99.90;;;;;;10481965;28;20053;-36
2023/10/03 11:32:46;;;;;;;7.78;1.05;;;18.20;99.90;;;;;;10460644;28;20075;-36
2023/10/03 11:37:51;;;;;;;;;;;17.90;99.90;;;;;;10474889;28;20061;-42
2023/10/03 11:42:55;;;;;;;5.97;1.63;;;18.50;99.90;;;;;;10479105;28;20388;-40
2023/10/03 11:48:00;;;;;;;9.23;1.40;;;18.00;99.90;;;;;;10488607;28;20044;-31
2023/10/03 11:53:05;;;;;;;3.55;1.17;;;17.10;99.90;;;;;;10483478;28;20088;-37
2023/10/03 11:58:07;;;;;;;6.15;1.65;;;20.20;99.90;;;;;;10484516;28;20442;-32
2023/10/03 12:03:09;;;;;;;4.00;1.80;;;18.60;99.90;;;;;;10482444;28;20066;-42
2023/10/03 12:08:13;;;;;;;5.55;1.30;;;20.90;97.70;;;;;;10488714;28;20041;-31
2023/10/03 12:13:15;;;;;;;5.88;1.60;;;19.30;99.90;;;;;;10481826;28;20062;-33
2023/10/03 12:18:17;;;;;;;;;;;18.30;99.90;;;;;;10495536;28;20044;-31
2023/10/03 12:23:20;;;;;;;8.52;2.22;;;19.20;99.90;;;;;;10482379;28;20755;-41
2023/10/03 12:28:22;;;;;;;5.03;1.40;;;18.40;99.90;;;;;;10481074;28;20049;-41
2023/10/03 12:33:23;;;;;;;7.90;1.67;;;19.70;99.90;;;;;;10488703;28;20127;-32
2023/10/03 12:38:26;;;;;;;9.67;1.87;;;19.00;99.70;;;;;;10491924;28;20508;-32
2023/10/03 12:43:28;;;;;;;6.43;1.45;;;18.90;99.90;;;;;;10472193;28;20572;-36
2023/10/03 12:48:30;;;;;;;5.93;1.87;;;19.20;98.20;;;;;;10486334;28;20067;-38
2023/10/03 12:53:36;;;;;;;3.17;1.45;;;19.00;99.90;;;;;;10478231;28;20556;-36
2023/10/03 12:58:39;;;;;;;5.28;1.20;;;19.00;95.50;;;;;;10480973;28;20068;-50
2023/10/03 13:03:42;;;;;;;6.70;2.03;;;19.50;92.50;;;;;;10464806;28;20513;-32
2023/10/03 13:08:46;;;;;;;4.15;1.38;;;19.90;95.10;;;;;;10467177;28;20049;-34
2023/10/03 13:13:49;;;;;;;2.92;1.30;;;19.90;94.40;;;;;;10476424;28;20576;-39
2023/10/03 13:18:51;;;;;;;3.85;1.50;;;18.70;98.90;;;;;;10480181;28;20049;-39
2023/10/03 13:23:55;;;;;;;3.35;1.13;;;19.40;82.90;;;;;;10472025;28;20127;-41
2023/10/03 13:28:57;;;;;;;6.40;1.77;;;20.40;88.40;;;;;;10478393;28;20493;-37
2023/10/03 13:33:59;;;;;;;4.32;1.70;;;19.70;87.60;;;;;;10470552;28;20133;-30
2023/10/03 13:39:04;;;;;;;5.03;1.33;;;20.50;90.50;;;;;;10471902;28;20052;-37
2023/10/03 13:44:07;;;;;;;10.07;2.70;;;20.30;83.30;;;;;;10464391;28;20040;-31
2023/10/03 13:49:09;;;;;;;4.97;1.83;;;20.30;90.30;;;;;;10485610;28;20043;-34
2023/10/03 13:54:13;;;;;;;5.85;1.52;;;20.90;90.20;;;;;;10469899;28;20102;-43
2023/10/03 13:59:14;;;;;;;11.50;2.20;;;20.40;91.60;;;;;;10469787;28;20481;-35
2023/10/03 14:04:17;;;;;;;12.85;2.50;;;19.20;81.60;;;;;;10474797;28;20041;-35
2023/10/03 14:09:26;;;;;;;6.30;1.60;;;18.70;92.50;;;;;;10469462;28;20036;-34
2023/10/03 14:14:29;;;;;;;6.03;1.45;;;19.80;91.50;;;;;;10459981;28;20193;-35
2023/10/03 14:19:34;;;;;;;7.93;1.48;;;19.60;96.70;;;;;;10472172;28;20099;-28
2023/10/03 14:24:39;;;;;;;6.25;2.13;;;19.10;94.40;;;;;;10485593;28;20040;-32
2023/10/03 14:29:43;;;;;;;8.00;1.65;;;20.30;85.70;;;;;;10479416;28;20064;-34
2023/10/03 14:34:45;;;;;;;11.00;1.98;;;20.30;81.00;;;;;;10477795;28;20053;-39
2023/10/03 14:39:50;;;;;;;5.63;1.40;;;20.40;82.70;;;;;;10470244;28;20056;-44
2023/10/03 14:44:51;;;;;;;2.72;1.40;;;20.80;80.60;;;;;;10475190;28;20060;-32
2023/10/03 14:49:53;;;;;;;5.65;1.67;;;20.70;90.50;;;;;;10482712;28;20136;-38
2023/10/03 14:54:56;;;;;;;10.10;1.77;;;21.00;81.40;;;;;;10481178;28;20056;-29
2023/10/03 14:59:58;;;;;;;6.55;1.58;;;21.00;82.10;;;;;;10492307;28;20048;-43
2023/10/03 15:05:00;;;;;;;6.18;1.65;;;20.70;75.20;;;;;;10481805;28;20052;-39
2023/10/03 15:10:06;;;;;;;4.20;1.52;;;20.90;91.40;;;;;;10472831;28;20541;-41
2023/10/03 15:15:08;;;;;;;11.25;2.03;;;20.90;80.10;;;;;;10483373;28;20060;-38
2023/10/03 15:20:12;;;;;;;3.90;1.40;;;20.30;94.70;;;;;;10473710;28;20137;-35
2023/10/03 15:25:16;;;;;;;5.70;1.65;;;20.50;90.20;;;;;;10472939;28;20076;-39
2023/10/03 15:30:18;;;;;;;8.40;1.95;;;20.20;90.60;;;;;;10471521;28;20048;-35
2023/10/03 15:35:20;;;;;;;8.32;1.40;;;19.20;95.70;;;;;;10479322;28;20051;-30
2023/10/03 15:40:27;;;;;;;5.30;1.73;;;20.20;98.00;;;;;;10471059;28;20040;-39
2023/10/03 15:45:29;;;;;;;9.35;1.45;;;19.60;97.00;;;;;;10481741;28;20063;-38
2023/10/03 15:50:33;;;;;;;5.78;1.63;;;19.90;94.80;;;;;;10483117;28;20071;-37
2023/10/03 15:55:38;;;;;;;5.78;1.60;;;19.30;95.00;;;;;;10482109;28;20604;-32
2023/10/03 16:00:39;;;;;;;5.35;1.35;;;19.90;90.80;;;;;;10475585;28;20136;-31
2023/10/03 16:05:42;;;;;;;8.88;1.80;;;19.70;93.00;;;;;;10475633;28;20052;-31
2023/10/03 16:10:45;;;;;;;;;;;18.90;94.70;;;;;;10481128;28;20542;-37
2023/10/03 16:15:47;;;;;;;;;;;19.50;90.90;;;;;;10470554;28;20019;-38
2023/10/03 16:20:49;;;;;;;9.57;1.80;;;19.40;89.50;;;;;;10485361;28;19934;-42
2023/10/03 16:25:52;;;;;;;7.03;1.90;;;18.60;96.70;;;;;;10479887;28;20052;-31
2023/10/03 16:30:53;;;;;;;6.28;1.80;;;19.20;97.10;;;;;;10479478;28;20127;-36
2023/10/03 16:35:58;;;;;;;7.80;1.70;;;18.30;99.90;;;;;;10489211;28;20151;-34
2023/10/03 16:41:01;;;;;;;6.47;1.83;;;18.00;99.90;;;;;;10478129;28;20060;-40
2023/10/03 16:46:09;;;;;;;10.82;1.63;;;18.40;99.90;;;;;;10459455;28;20086;-31
2023/10/03 16:51:11;;;;;;;5.68;2.38;;;18.50;99.90;;;;;;10463716;28;20504;-32
2023/10/03 16:56:14;;;;;;;6.53;1.67;;;18.30;99.90;;;;;;10483767;28;20137;-33
2023/10/03 17:01:16;;;;;;;12.05;1.35;;;18.60;99.90;;;;;;10474082;28;20476;-43
2023/10/03 17:06:18;;;;;;;;;;;18.90;96.60;;;;;;10477515;28;20711;-32
2023/10/03 17:11:21;;;;;;;8.25;1.40;;;18.60;97.60;;;;;;10481834;28;20366;-36
2023/10/03 17:16:23;;;;;;;9.75;2.78;;;18.60;98.90;;;;;;10475038;28;20080;-40
2023/10/03 17:21:25;;;;;;;2.27;0.90;;;18.30;99.90;;;;;;10489561;28;20048;-34
2023/10/03 17:26:28;;;;;;;8.13;1.23;;;18.50;99.90;;;;;;10488284;28;21045;-37
2023/10/03 17:31:29;;;;;;;7.78;1.75;;;18.30;94.40;;;;;;10483655;28;20058;-35
2023/10/03 17:36:31;;;;;;;4.88;1.17;;;17.90;91.50;;;;;;10488203;28;20046;-36
2023/10/03 17:41:37;;;;;;;5.65;1.10;;;18.70;99.70;;;;;;10464419;28;20045;-39
2023/10/03 17:46:39;;;;;;;7.35;1.30;;;18.20;96.30;;;;;;10464545;28;20187;-47
2023/10/03 17:51:42;;;;;;;4.15;0.93;;;18.70;97.80;;;;;;10472726;28;20040;-37
2023/10/03 17:56:45;;;;;;;7.07;1.08;;;18.10;93.60;;;;;;10474758;28;20055;-41
2023/10/03 18:01:46;;;;;;;3.13;1.05;;;18.00;96.90;;;;;;10481463;28;20098;-35
2023/10/03 18:06:49;;;;;;;5.57;1.23;;;18.80;98.50;;;;;;10472768;28;20083;-37
2023/10/03 18:11:54;;;;;;;5.88;1.50;;;18.50;90.70;;;;;;10472627;28;20480;-38
2023/10/03 18:16:57;;;;;;;14.00;2.53;;;18.30;91.90;;;;;;10462328;28;20063;-35
2023/10/03 18:22:00;;;;;;;6.28;1.08;;;17.80;95.60;;;;;;10480657;28;20486;-39
2023/10/03 18:27:04;;;;;;;10.18;1.67;;;18.80;94.90;;;;;;10467614;28;20045;-41
2023/10/03 18:32:06;;;;;;;5.20;0.90;;;18.40;92.50;;;;;;10474058;28;20053;-36
2023/10/03 18:37:08;;;;;;;8.87;1.13;;;18.10;92.50;;;;;;10476655;28;20429;-50
2023/10/03 18:42:11;;;;;;;9.82;2.72;;;19.30;96.20;;;;;;10465960;28;20045;-32
2023/10/03 18:47:12;;;;;;;8.05;1.25;;;18.30;96.10;;;;;;10479294;28;20079;-34
2023/10/03 18:52:14;;;;;;;6.13;1.07;;;18.00;95.20;;;;;;10474909;28;20549;-40
2023/10/03 18:57:17;;;;;;;5.35;1.20;;;18.90;92.50;;;;;;10493265;28;20122;-36
2023/10/03 19:02:19;;;;;;;9.60;1.50;;;18.70;85.70;;;;;;10479861;28;20187;-39
2023/10/03 19:07:21;;;;;;;13.20;1.30;;;19.10;90.10;;;;;;10469830;28;20594;-31
2023/10/03 19:12:24;;;;;;;8.43;2.07;;;17.70;85.00;;;;;;10468108;28;20484;-34
2023/10/03 19:17:26;;;;;;;5.68;1.10;;;17.50;97.30;;;;;;10470626;28;20088;-32
2023/10/03 19:22:27;;;;;;;6.72;1.50;;;18.20;87.00;;;;;;10479362;28;20076;-40
2023/10/03 19:27:32;;;;;;;10.83;1.23;;;18.40;96.60;;;;;;10474355;28;20094;-43
2023/10/03 19:32:34;;;;;;;5.05;1.20;;;18.20;93.30;;;;;;10464247;28;20456;-35
2023/10/03 19:37:36;;;;;;;15.50;1.27;;;18.20;90.50;;;;;;10476799;28;20045;-31
2023/10/03 19:42:39;;;;;;;10.88;1.73;;;18.60;95.40;;;;;;10481405;28;20075;-32
2023/10/03 19:47:41;;;;;;;7.35;1.33;;;17.60;86.30;;;;;;10471368;28;20057;-30
2023/10/03 19:52:43;;;;;;;3.93;1.43;;;17.70;90.20;;;;;;10480369;28;20052;-33
2023/10/03 19:57:46;;;;;;;8.25;1.55;;;18.10;84.20;;;;;;10468905;28;20139;-35
2023/10/03 20:02:48;;;;;;;15.65;1.92;;;17.90;80.50;;;;;;10479605;28;20129;-32
2023/10/03 20:07:50;;;;;;;4.13;1.20;;;18.10;90.50;;;;;;10485977;28;20061;-34
2023/10/03 20:12:54;;;;;;;3.90;1.20;;;17.60;85.80;;;;;;10478319;28;20659;-36
2023/10/03 20:17:55;;;;;;;8.80;1.17;;;18.40;84.40;;;;;;10480460;28;20044;-40
2023/10/03 20:22:57;;;;;;;5.47;1.27;;;18.40;90.50;;;;;;10469997;28;20076;-37
2023/10/03 20:28:01;;;;;;;8.73;1.37;;;18.30;83.50;;;;;;10474138;28;20510;-44
2023/10/03 20:33:03;;;;;;;8.75;1.42;;;18.10;86.60;;;;;;10477910;28;20702;-36
2023/10/03 20:38:06;;;;;;;14.75;1.50;;;18.90;86.50;;;;;;10479106;28;20049;-31
2023/10/03 20:43:09;;;;;;;9.38;1.98;;;18.00;92.10;;;;;;10474473;28;20469;-41
2023/10/03 20:48:11;;;;;;;15.05;2.45;;;18.60;94.90;;;;;;10477773;28;20071;-34
2023/10/03 20:53:14;;;;;;;8.70;1.70;;;18.70;86.40;;;;;;10490350;28;20131;-31
2023/10/03 20:58:17;;;;;;;9.13;1.95;;;18.60;92.30;;;;;;10474088;28;20080;-40
2023/10/03 21:03:19;;;;;;;12.70;1.70;;;18.20;91.10;;;;;;10480305;28;20128;-39
2023/10/03 21:08:23;;;;;;;14.10;1.70;;;17.80;90.90;;;;;;10484990;28;20079;-38
2023/10/03 21:13:26;;;;;;;10.65;2.50;;;18.40;89.40;;;;;;10481256;28;20050;-34
2023/10/03 21:18:28;;;;;;;9.55;1.75;;;18.10;89.40;;;;;;10481691;28;20149;-42
2023/10/03 21:23:30;;;;;;;4.93;1.42;;;18.20;91.60;;;;;;10483947;28;20076;-41
2023/10/03 21:28:34;;;;;;;4.82;1.23;;;18.20;91.60;;;;;;10478751;28;20481;-42
2023/10/03 21:33:36;;;;;;;9.38;1.80;;;17.80;92.10;;;;;;10484043;28;20040;-31
2023/10/03 21:38:38;;;;;;;7.23;1.90;;;18.20;91.40;;;;;;10470471;28;20084;-37
2023/10/03 21:43:42;;;;;;;8.63;1.70;;;18.40;96.10;;;;;;10466233;28;20087;-38
2023/10/03 21:48:43;;;;;;;15.27;2.20;;;18.40;91.60;;;;;;10454013;28;21771;-38
2023/10/03 21:53:45;;;;;;;9.65;1.90;;;17.70;90.70;;;;;;10468346;28;20044;-34
2023/10/03 21:58:48;;;;;;;5.93;1.17;;;17.70;90.10;;;;;;10482085;28;20072;-30
2023/10/03 22:03:51;;;;;;;9.40;1.52;;;18.30;90.70;;;;;;10468805;28;20061;-39
2023/10/03 22:08:53;;;;;;;10.15;1.50;;;17.80;92.90;;;;;;10475773;28;20052;-39
2023/10/03 22:13:56;;;;;;;6.47;1.67;;;18.60;93.10;;;;;;10481196;28;20056;-33
2023/10/03 22:18:58;;;;;;;4.47;1.08;;;17.80;93.50;;;;;;10477914;28;20101;-35
2023/10/03 22:23:59;;;;;;;5.57;1.50;;;18.40;91.00;;;;;;10464630;28;20087;-34
2023/10/03 22:29:03;;;;;;;8.47;2.07;;;18.00;94.90;;;;;;10479109;28;20129;-46
2023/10/03 22:34:06;;;;;;;8.13;1.58;;;17.50;95.80;;;;;;10477735;28;20135;-39
2023/10/03 22:39:08;;;;;;;7.88;2.03;;;17.80;94.60;;;;;;10473242;28;20044;-37
2023/10/03 22:44:11;;;;;;;4.45;1.80;;;17.80;91.50;;;;;;10462916;28;20055;-36
2023/10/03 22:49:13;;;;;;;7.10;1.50;;;17.40;93.80;;;;;;10477586;28;20081;-41
2023/10/03 22:54:14;;;;;;;10.63;1.83;;;18.50;93.70;;;;;;10459369;28;20067;-34
2023/10/03 22:59:18;;;;;;;6.10;1.40;;;17.80;92.40;;;;;;10479349;28;20044;-38
2023/10/03 23:04:19;;;;;;;18.15;2.38;;;18.00;94.70;;;;;;10461028;28;20497;-37
2023/10/03 23:09:22;;;;;;;6.07;1.67;;;17.40;96.60;;;;;;10488414;28;20072;-37
2023/10/03 23:14:25;;;;;;;11.18;2.25;;;18.00;92.10;;;;;;10475603;28;20055;-34
2023/10/03 23:19:27;;;;;;;10.23;1.83;;;17.80;91.60;;;;;;10459939;28;20048;-32
2023/10/03 23:24:29;;;;;;;8.20;2.00;;;18.10;93.10;;;;;;10470125;28;20087;-38
2023/10/03 23:29:33;;;;;;;9.13;2.00;;;17.70;97.10;;;;;;10473422;28;20528;-37
2023/10/03 23:34:36;;;;;;;8.00;2.05;;;18.00;93.60;;;;;;10487480;28;20063;-36
2023/10/03 23:39:38;;;;;;;14.93;2.90;;;17.40;97.50;;;;;;10484340;28;20054;-37
2023/10/03 23:44:43;;;;;;;6.57;1.93;;;17.80;93.20;;;;;;10488743;28;20102;-35
2023/10/03 23:49:46;;;;;;;11.85;1.92;;;17.20;96.50;;;;;;10495963;28;20052;-42
2023/10/03 23:54:49;;;;;;;5.70;1.85;;;17.60;98.70;;;;;;10484731;28;20083;-37
2023/10/03 23:59:52;;;;;;;5.43;1.15;;;18.00;95.90;;;;;;10474097;28;20040;-33
